Time;durP1;ratioP1;P1;durP2;ratioP2;P2;SDS_P1;SDS_P2;PMS_P1;PMS_P2;Temp;Humidity;BMP_temperature;BMP_pressure;BME280_temperature;BME280_humidity;BME280_pressure;Samples;Min_cycle;Max_cycle;Signal;HPM_P1;HPM_P2
2023/09/18 00:01:05;;;;;;;2.42;1.00;;;25.00;50.00;;;;;;2340855;54;20980;-68
2023/09/18 00:03:33;;;;;;;1.42;0.57;;;24.90;50.10;;;;;;2340646;54;21027;-69
2023/09/18 00:06:00;;;;;;;2.08;1.02;;;24.90;50.10;;;;;;2585828;53;20936;-70
2023/09/18 00:08:28;;;;;;;2.97;0.90;;;24.80;50.10;;;;;;2565657;53;21043;-67
2023/09/18 00:10:54;;;;;;;2.50;1.10;;;24.80;50.10;;;;;;2574358;53;21677;-69
2023/09/18 00:13:21;;;;;;;2.90;1.08;;;24.80;50.30;;;;;;2340210;55;21806;-68
2023/09/18 00:15:54;;;;;;;2.90;1.02;;;24.80;50.40;;;;;;2339466;55;20925;-68
2023/09/18 00:18:21;;;;;;;2.78;1.20;;;24.80;50.50;;;;;;2583775;53;20992;-67
2023/09/18 00:20:49;;;;;;;2.10;0.90;;;24.80;50.50;;;;;;2338353;55;22015;-70
2023/09/18 00:23:15;;;;;;;2.33;0.90;;;24.80;50.60;;;;;;2314429;54;21790;-69
2023/09/18 00:25:42;;;;;;;1.92;0.80;;;24.80;50.60;;;;;;2582968;53;20996;-68
2023/09/18 00:28:08;;;;;;;1.33;0.70;;;24.80;50.60;;;;;;2338244;54;20944;-70
2023/09/18 00:30:37;;;;;;;2.33;0.82;;;24.80;50.60;;;;;;2337598;55;20993;-67
2023/09/18 00:33:07;;;;;;;2.92;0.80;;;24.80;50.60;;;;;;2337375;55;20928;-70
2023/09/18 00:35:34;;;;;;;4.25;1.00;;;24.80;50.60;;;;;;2582980;53;20968;-68
2023/09/18 00:38:03;;;;;;;4.57;1.00;;;24.80;50.70;;;;;;2580958;53;20945;-69
2023/09/18 00:40:30;;;;;;;2.95;1.10;;;24.80;50.70;;;;;;2579953;53;20972;-70
2023/09/18 00:42:57;;;;;;;1.85;0.70;;;24.90;50.80;;;;;;2335180;54;21023;-70
2023/09/18 00:45:23;;;;;;;2.03;0.90;;;24.90;50.90;;;;;;2581574;53;20925;-69
2023/09/18 00:47:50;;;;;;;2.45;0.80;;;24.90;51.00;;;;;;2321900;54;21020;-69
2023/09/18 00:50:17;;;;;;;2.80;0.88;;;24.80;50.90;;;;;;2559494;53;20949;-68
2023/09/18 00:52:45;;;;;;;1.70;0.68;;;24.90;51.10;;;;;;2582811;53;21304;-67
2023/09/18 00:55:13;;;;;;;2.37;1.05;;;24.90;51.30;;;;;;2312834;54;20928;-69
2023/09/18 00:57:40;;;;;;;3.12;0.80;;;24.90;51.50;;;;;;2547434;53;21481;-70
2023/09/18 01:00:17;;;;;;;3.55;0.90;;;25.00;51.70;;;;;;2334996;54;21572;-67
2023/09/18 01:02:44;;;;;;;2.15;0.95;;;25.00;51.90;;;;;;2578402;53;21000;-71
2023/09/18 01:05:13;;;;;;;4.97;1.20;;;24.90;51.80;;;;;;2577835;53;22239;-67
2023/09/18 01:07:43;;;;;;;3.28;1.12;;;25.00;52.20;;;;;;2336510;55;20981;-66
2023/09/18 01:10:15;;;;;;;2.22;1.00;;;25.00;52.40;;;;;;2336400;54;21940;-70
2023/09/18 01:16:17;;;;;;;3.10;1.27;;;25.00;52.50;;;;;;2574251;53;21767;-68
2023/09/18 01:18:50;;;;;;;2.70;0.98;;;25.00;52.50;;;;;;2333223;55;20944;-70
2023/09/18 01:21:20;;;;;;;2.40;1.20;;;25.10;52.50;;;;;;2580827;53;20916;-68
2023/09/18 01:23:51;;;;;;;2.60;1.00;;;25.10;52.40;;;;;;2333324;54;21040;-69
2023/09/18 01:26:18;;;;;;;1.85;0.70;;;25.10;52.30;;;;;;2337708;54;20912;-71
2023/09/18 01:28:44;;;;;;;2.47;0.85;;;25.10;52.30;;;;;;2334513;55;21708;-68
2023/09/18 01:31:27;;;;;;;2.12;0.75;;;25.10;52.30;;;;;;2582202;53;20944;-69
2023/09/18 01:33:53;;;;;;;2.75;0.73;;;25.10;52.60;;;;;;2583671;53;20988;-70
2023/09/18 01:36:22;;;;;;;2.65;0.90;;;25.10;52.30;;;;;;2583825;53;21004;-67
2023/09/18 01:38:48;;;;;;;3.28;0.90;;;25.10;52.30;;;;;;2577628;53;20936;-67
2023/09/18 01:41:15;;;;;;;2.50;0.90;;;25.10;52.20;;;;;;2334685;55;20949;-67
2023/09/18 01:43:41;;;;;;;3.55;0.98;;;25.20;52.30;;;;;;2568616;53;21046;-67
2023/09/18 01:46:08;;;;;;;2.70;1.10;;;25.20;52.40;;;;;;2564774;53;20972;-67
2023/09/18 01:48:34;;;;;;;3.10;1.17;;;25.20;52.40;;;;;;2336133;54;21040;-68
2023/09/18 01:51:03;;;;;;;3.42;1.00;;;25.20;52.30;;;;;;2337115;54;21374;-68
2023/09/18 01:53:32;;;;;;;2.30;0.90;;;25.00;52.10;;;;;;2582399;53;20985;-70
2023/09/18 01:55:58;;;;;;;3.20;1.12;;;25.20;52.30;;;;;;2580491;53;21028;-68
2023/09/18 01:58:29;;;;;;;3.37;1.17;;;25.10;52.30;;;;;;2336014;55;20964;-67
2023/09/18 02:00:56;;;;;;;2.35;1.23;;;25.10;52.50;;;;;;2336304;55;20988;-68
2023/09/18 02:03:22;;;;;;;5.25;1.62;;;25.10;52.40;;;;;;2336082;55;20945;-67
2023/09/18 02:05:48;;;;;;;2.03;0.98;;;25.00;52.40;;;;;;2335237;54;21040;-67
2023/09/18 02:08:17;;;;;;;2.50;1.12;;;25.00;52.60;;;;;;2337180;55;20981;-67
2023/09/18 02:10:44;;;;;;;2.75;1.20;;;25.00;52.60;;;;;;2582152;53;20949;-66
2023/09/18 02:13:11;;;;;;;3.05;1.20;;;25.00;52.80;;;;;;2335514;54;20972;-67
2023/09/18 02:15:37;;;;;;;3.92;1.10;;;25.00;52.90;;;;;;2314988;54;24750;-70
2023/09/18 02:18:04;;;;;;;3.37;1.33;;;25.00;53.00;;;;;;2550245;53;20999;-69
2023/09/18 02:20:30;;;;;;;2.83;1.10;;;25.00;53.20;;;;;;2575806;53;21825;-68
2023/09/18 02:22:57;;;;;;;3.60;1.55;;;25.00;53.30;;;;;;2335911;55;21567;-69
2023/09/18 02:25:24;;;;;;;4.45;1.40;;;25.00;53.30;;;;;;2334944;55;20975;-68
2023/09/18 02:27:51;;;;;;;3.00;1.42;;;25.00;53.40;;;;;;2581415;53;21463;-68
2023/09/18 02:30:19;;;;;;;2.55;1.17;;;25.00;53.40;;;;;;2582200;53;20925;-69
2023/09/18 02:32:45;;;;;;;2.67;1.30;;;25.00;53.60;;;;;;2337602;55;21056;-67
2023/09/18 02:35:12;;;;;;;3.30;1.40;;;25.00;53.60;;;;;;2340743;54;20961;-69
2023/09/18 02:37:38;;;;;;;2.47;1.17;;;25.00;53.60;;;;;;2340589;55;20951;-68
2023/09/18 02:40:05;;;;;;;2.22;1.12;;;25.00;53.70;;;;;;2586406;53;20933;-68
2023/09/18 02:42:31;;;;;;;4.00;1.48;;;25.00;53.70;;;;;;2340695;54;21806;-68
2023/09/18 02:44:59;;;;;;;3.83;1.40;;;25.00;53.70;;;;;;2585302;53;21364;-70
2023/09/18 02:47:25;;;;;;;4.25;1.62;;;25.00;53.80;;;;;;2339903;55;21771;-69
2023/09/18 02:49:52;;;;;;;3.87;1.45;;;24.90;53.80;;;;;;2586379;53;21020;-70
2023/09/18 02:52:20;;;;;;;3.67;1.55;;;24.90;53.80;;;;;;2342059;55;21031;-68
2023/09/18 02:54:46;;;;;;;6.70;1.65;;;24.90;54.00;;;;;;2579403;53;21008;-67
2023/09/18 02:57:14;;;;;;;4.53;1.40;;;24.90;54.20;;;;;;2560619;53;20905;-68
2023/09/18 02:59:41;;;;;;;5.00;1.80;;;24.90;54.40;;;;;;2585748;53;21512;-68
2023/09/18 03:02:07;;;;;;;6.45;1.70;;;24.80;54.50;;;;;;2586132;53;20929;-67
2023/09/18 03:04:34;;;;;;;5.12;1.60;;;24.80;55.30;;;;;;2340303;55;21856;-70
2023/09/18 03:07:03;;;;;;;4.87;1.35;;;24.60;56.20;;;;;;2586355;53;21743;-71
2023/09/18 03:09:30;;;;;;;5.68;1.40;;;24.60;57.10;;;;;;2340504;55;20953;-67
2023/09/18 03:11:59;;;;;;;3.47;1.40;;;24.50;57.70;;;;;;2586780;53;20924;-69
2023/09/18 03:14:26;;;;;;;4.53;1.50;;;24.40;58.40;;;;;;2585816;53;20976;-69
2023/09/18 03:16:52;;;;;;;5.78;1.92;;;24.40;58.90;;;;;;2586652;53;21707;-68
2023/09/18 03:19:19;;;;;;;3.78;1.40;;;24.30;59.40;;;;;;2584994;53;21454;-69
2023/09/18 03:21:48;;;;;;;4.25;1.55;;;24.20;59.80;;;;;;2584549;53;20914;-70
2023/09/18 03:24:14;;;;;;;4.12;1.10;;;24.20;60.20;;;;;;2585054;53;21185;-70
2023/09/18 03:26:41;;;;;;;2.58;1.08;;;24.10;60.60;;;;;;2551540;53;21019;-68
2023/09/18 03:29:07;;;;;;;4.07;1.00;;;24.00;61.00;;;;;;2584782;53;20947;-67
2023/09/18 03:31:36;;;;;;;4.03;1.05;;;23.90;61.40;;;;;;2338898;55;20963;-67
2023/09/18 03:34:03;;;;;;;4.15;1.17;;;23.90;61.80;;;;;;2584018;53;20973;-68
2023/09/18 03:36:30;;;;;;;4.07;1.30;;;23.90;62.30;;;;;;2338195;54;20956;-69
2023/09/18 03:38:56;;;;;;;4.03;1.20;;;23.80;62.60;;;;;;2584244;53;21440;-68
2023/09/18 03:41:23;;;;;;;3.83;1.05;;;23.80;62.90;;;;;;2583529;53;21000;-69
2023/09/18 03:43:50;;;;;;;4.57;1.23;;;23.80;63.10;;;;;;2582283;53;20940;-68
2023/09/18 03:46:19;;;;;;;4.37;1.45;;;23.70;63.40;;;;;;2582002;53;20909;-68
2023/09/18 03:48:46;;;;;;;3.30;0.90;;;23.70;63.60;;;;;;2583008;53;21517;-69
2023/09/18 03:51:15;;;;;;;3.80;1.00;;;23.60;63.70;;;;;;2584342;53;20976;-68
2023/09/18 03:53:47;;;;;;;3.25;0.75;;;23.60;64.00;;;;;;2337121;55;21020;-70
2023/09/18 03:56:14;;;;;;;2.05;0.75;;;23.60;64.20;;;;;;2337201;55;20997;-68
2023/09/18 03:58:46;;;;;;;1.90;0.65;;;23.60;64.50;;;;;;2562364;53;20952;-69
2023/09/18 04:01:13;;;;;;;2.17;0.90;;;23.50;64.70;;;;;;2572909;53;20972;-67
2023/09/18 04:03:39;;;;;;;2.87;0.70;;;23.50;64.90;;;;;;2579851;53;21003;-68
2023/09/18 04:06:10;;;;;;;2.28;0.80;;;23.50;65.20;;;;;;2580709;53;20992;-70
2023/09/18 04:08:38;;;;;;;2.00;0.65;;;23.40;65.40;;;;;;2557986;53;21712;-68
2023/09/18 04:11:04;;;;;;;2.25;0.68;;;23.40;65.60;;;;;;2320050;54;21882;-67
2023/09/18 04:13:31;;;;;;;2.20;0.65;;;23.40;65.70;;;;;;2576883;53;21045;-68
2023/09/18 04:16:00;;;;;;;1.40;0.60;;;23.40;66.00;;;;;;2332050;54;21531;-68
2023/09/18 04:18:28;;;;;;;2.28;0.80;;;23.30;66.10;;;;;;2314408;54;21429;-68
2023/09/18 04:20:55;;;;;;;1.75;0.62;;;23.30;66.30;;;;;;2568642;53;20932;-69
2023/09/18 04:23:28;;;;;;;3.62;0.80;;;23.30;66.50;;;;;;2324981;54;21388;-69
2023/09/18 04:25:55;;;;;;;1.70;0.73;;;23.20;66.60;;;;;;2567789;53;21024;-69
2023/09/18 04:28:22;;;;;;;4.75;0.82;;;23.20;66.80;;;;;;2320805;54;21728;-69
2023/09/18 04:30:50;;;;;;;1.85;0.60;;;23.20;67.00;;;;;;2313869;54;20974;-67
2023/09/18 04:33:19;;;;;;;4.15;0.68;;;23.20;67.10;;;;;;2560779;53;20940;-67
2023/09/18 04:35:49;;;;;;;2.47;0.73;;;23.20;67.30;;;;;;2322392;55;20936;-67
2023/09/18 04:38:16;;;;;;;3.75;0.82;;;23.20;67.40;;;;;;2317279;54;20929;-69
2023/09/18 04:40:45;;;;;;;1.90;0.70;;;23.20;67.50;;;;;;2564959;53;20976;-67
2023/09/18 04:43:12;;;;;;;3.65;1.17;;;23.20;67.60;;;;;;2563877;53;21012;-69
2023/09/18 04:45:40;;;;;;;3.58;0.90;;;23.20;67.70;;;;;;2316753;55;20952;-67
2023/09/18 04:48:07;;;;;;;2.58;0.70;;;23.10;67.70;;;;;;2564987;53;21847;-68
2023/09/18 04:50:38;;;;;;;5.32;1.25;;;23.10;67.80;;;;;;2324641;54;20964;-68
2023/09/18 04:53:05;;;;;;;3.62;0.90;;;23.10;67.90;;;;;;2567827;53;20956;-68
2023/09/18 04:55:31;;;;;;;2.50;0.80;;;23.10;68.00;;;;;;2534511;53;21295;-69
2023/09/18 04:57:58;;;;;;;4.10;0.90;;;23.10;68.80;;;;;;2570556;53;21532;-67
2023/09/18 05:00:26;;;;;;;2.10;0.93;;;23.10;68.20;;;;;;2572658;53;20948;-69
2023/09/18 05:02:52;;;;;;;2.50;0.82;;;23.10;68.30;;;;;;2325516;55;21757;-67
2023/09/18 05:05:19;;;;;;;2.15;0.80;;;23.10;68.30;;;;;;2568064;53;21810;-68
2023/09/18 05:07:48;;;;;;;3.45;1.10;;;23.10;68.40;;;;;;2567739;53;22691;-68
2023/09/18 05:10:15;;;;;;;3.25;0.80;;;23.10;68.40;;;;;;2569702;53;20964;-69
2023/09/18 05:12:41;;;;;;;2.25;0.45;;;23.00;68.30;;;;;;2325948;54;20936;-69
2023/09/18 05:15:12;;;;;;;2.65;0.82;;;23.00;68.50;;;;;;2566223;53;21764;-67
2023/09/18 05:17:51;;;;;;;2.33;0.80;;;23.00;68.40;;;;;;2571247;53;20937;-68
2023/09/18 05:20:19;;;;;;;3.30;0.73;;;23.00;68.40;;;;;;2325532;54;21809;-68
2023/09/18 05:22:45;;;;;;;2.72;0.80;;;23.00;68.40;;;;;;2325773;55;21491;-69
2023/09/18 05:25:11;;;;;;;2.20;0.60;;;23.00;68.50;;;;;;2570362;53;21032;-70
2023/09/18 05:27:43;;;;;;;2.90;1.00;;;23.00;68.50;;;;;;2566937;53;21039;-68
2023/09/18 05:30:15;;;;;;;2.70;1.08;;;23.00;68.60;;;;;;2320996;55;21005;-69
2023/09/18 05:32:45;;;;;;;2.20;0.75;;;23.00;68.60;;;;;;2567091;53;20940;-70
2023/09/18 05:35:12;;;;;;;2.50;0.60;;;23.00;68.70;;;;;;2322367;55;21008;-69
2023/09/18 05:37:43;;;;;;;2.30;0.73;;;23.00;68.80;;;;;;2569678;53;21732;-67
2023/09/18 05:40:13;;;;;;;2.03;0.60;;;23.00;68.70;;;;;;2565771;53;21076;-68
2023/09/18 05:42:44;;;;;;;2.65;0.98;;;23.00;68.90;;;;;;2323238;54;20960;-69
2023/09/18 05:45:11;;;;;;;2.15;0.60;;;22.90;68.80;;;;;;2569059;53;20976;-70
2023/09/18 05:47:39;;;;;;;1.75;0.40;;;22.90;68.90;;;;;;2567165;53;21559;-68
2023/09/18 05:50:09;;;;;;;2.05;0.55;;;22.90;68.90;;;;;;2566894;53;20976;-70
2023/09/18 05:52:41;;;;;;;;;;;22.90;68.90;;;;;;2569081;53;21096;-68
2023/09/18 05:55:08;;;;;;;1.67;0.50;;;22.90;68.10;;;;;;2567095;53;20787;-69
2023/09/18 05:57:34;;;;;;;1.00;0.37;;;22.90;68.90;;;;;;2542322;53;1336604;-69
2023/09/18 06:00:06;;;;;;;1.80;0.30;;;22.90;68.90;;;;;;2318661;54;21851;-68
2023/09/18 06:02:35;;;;;;;2.03;0.40;;;22.90;69.00;;;;;;2556184;53;20984;-68
2023/09/18 06:05:06;;;;;;;2.15;0.50;;;22.80;69.00;;;;;;2522857;53;20965;-68
2023/09/18 06:07:34;;;;;;;3.10;0.60;;;22.80;69.10;;;;;;2301854;54;21298;-69
2023/09/18 06:10:00;;;;;;;3.65;0.60;;;22.80;69.10;;;;;;2526363;53;21052;-68
2023/09/18 06:12:30;;;;;;;2.08;0.57;;;22.80;69.20;;;;;;2550575;53;20952;-68
2023/09/18 06:14:56;;;;;;;1.55;0.50;;;22.70;69.10;;;;;;2563893;53;21904;-68
2023/09/18 06:17:29;;;;;;;1.73;0.70;;;22.80;69.20;;;;;;2557804;53;20925;-68
2023/09/18 06:19:56;;;;;;;0.98;0.40;;;22.80;69.30;;;;;;2561752;53;21434;-68
2023/09/18 06:22:25;;;;;;;2.30;0.45;;;22.70;69.30;;;;;;2566209;53;21045;-69
2023/09/18 06:24:51;;;;;;;1.15;0.43;;;22.70;69.30;;;;;;2560624;53;21047;-69
2023/09/18 06:27:18;;;;;;;2.97;0.60;;;22.70;69.40;;;;;;2314114;54;21027;-67
2023/09/18 06:29:45;;;;;;;1.80;0.45;;;22.70;69.40;;;;;;2304653;54;21603;-68
2023/09/18 06:32:12;;;;;;;5.00;0.50;;;22.70;69.50;;;;;;2558907;53;21675;-70
2023/09/18 06:34:42;;;;;;;1.08;0.40;;;22.70;69.60;;;;;;2320294;54;21079;-67
2023/09/18 06:37:18;;;;;;;1.87;0.47;;;22.70;69.60;;;;;;2535068;53;21024;-69
2023/09/18 06:39:45;;;;;;;2.15;0.60;;;22.70;69.50;;;;;;2325649;55;21020;-68
2023/09/18 06:42:12;;;;;;;1.52;0.50;;;22.60;69.60;;;;;;2316723;55;21336;-68
2023/09/18 06:44:38;;;;;;;2.37;0.70;;;22.60;69.60;;;;;;2566993;53;20953;-68
2023/09/18 06:47:05;;;;;;;2.00;0.60;;;22.60;69.60;;;;;;2323535;54;20961;-68
2023/09/18 06:49:32;;;;;;;3.92;0.70;;;22.60;69.60;;;;;;2322849;55;20953;-68
2023/09/18 06:51:58;;;;;;;1.92;0.70;;;22.60;69.70;;;;;;2324473;54;21000;-67
2023/09/18 06:54:24;;;;;;;1.10;0.40;;;22.60;69.70;;;;;;2325339;55;21001;-68
2023/09/18 06:56:51;;;;;;;0.93;0.40;;;22.50;69.70;;;;;;2568050;53;20972;-69
2023/09/18 06:59:23;;;;;;;1.60;0.50;;;22.50;69.80;;;;;;2561977;53;21606;-68
2023/09/18 07:01:50;;;;;;;1.45;0.52;;;22.50;69.80;;;;;;2564245;53;20949;-68
2023/09/18 07:04:16;;;;;;;2.72;0.60;;;22.50;70.00;;;;;;2302497;54;21059;-69
2023/09/18 07:06:46;;;;;;;2.15;0.82;;;22.50;70.00;;;;;;2302561;54;21006;-68
2023/09/18 07:09:13;;;;;;;2.35;0.70;;;22.50;70.10;;;;;;2557205;53;21040;-69
2023/09/18 07:11:41;;;;;;;3.20;0.60;;;22.50;70.10;;;;;;2556510;53;20999;-68
2023/09/18 07:14:08;;;;;;;2.33;0.80;;;22.50;70.30;;;;;;2312724;54;21605;-68
2023/09/18 07:16:36;;;;;;;1.58;0.60;;;22.50;70.30;;;;;;2557306;53;20960;-68
2023/09/18 07:19:04;;;;;;;1.30;0.45;;;22.50;70.40;;;;;;2562968;53;21421;-69
2023/09/18 07:21:31;;;;;;;1.67;0.60;;;22.50;70.50;;;;;;2301234;54;21004;-68
2023/09/18 07:23:58;;;;;;;2.50;0.55;;;22.50;70.50;;;;;;2555952;53;21108;-68
2023/09/18 07:26:25;;;;;;;3.35;0.70;;;22.50;70.50;;;;;;2560679;53;21084;-67
2023/09/18 07:28:52;;;;;;;2.70;0.70;;;22.50;70.50;;;;;;2312900;55;20989;-68
2023/09/18 07:31:19;;;;;;;4.22;0.65;;;22.50;70.60;;;;;;2550006;53;21978;-68
2023/09/18 07:33:45;;;;;;;2.08;0.62;;;22.50;70.70;;;;;;2287889;54;20996;-69
2023/09/18 07:36:15;;;;;;;3.00;0.62;;;22.50;70.80;;;;;;2554710;53;20953;-69
2023/09/18 07:38:43;;;;;;;2.22;0.60;;;22.50;70.80;;;;;;2553357;53;20936;-69
2023/09/18 07:41:10;;;;;;;1.70;0.60;;;22.50;70.80;;;;;;2308186;55;21111;-67
2023/09/18 07:43:36;;;;;;;2.30;0.70;;;22.50;70.80;;;;;;2294907;54;20923;-68
2023/09/18 07:46:04;;;;;;;2.08;0.50;;;22.50;70.80;;;;;;2302818;54;20931;-69
2023/09/18 07:48:34;;;;;;;2.35;0.60;;;22.50;70.80;;;;;;2523628;53;21796;-68
2023/09/18 07:51:00;;;;;;;2.55;0.70;;;22.50;70.90;;;;;;2537734;53;20993;-68
2023/09/18 07:53:26;;;;;;;2.10;0.40;;;22.50;70.90;;;;;;2543251;53;20976;-69
2023/09/18 07:56:01;;;;;;;3.15;0.68;;;22.50;70.90;;;;;;2549355;53;21047;-70
2023/09/18 07:58:33;;;;;;;3.67;0.75;;;22.60;70.90;;;;;;2556865;53;21887;-67
2023/09/18 08:01:00;;;;;;;1.12;0.50;;;22.60;71.00;;;;;;2287204;54;21429;-70
2023/09/18 08:03:29;;;;;;;2.17;0.57;;;22.60;71.00;;;;;;2280363;54;21620;-68
2023/09/18 08:05:56;;;;;;;3.45;0.62;;;22.60;71.10;;;;;;2559169;53;20958;-70
2023/09/18 08:08:24;;;;;;;2.75;0.50;;;22.60;71.10;;;;;;2557023;53;21003;-69
2023/09/18 08:10:51;;;;;;;1.58;0.60;;;22.60;71.10;;;;;;2559796;53;20920;-69
2023/09/18 08:13:19;;;;;;;5.28;1.20;;;22.60;71.20;;;;;;2313800;54;21519;-69
2023/09/18 08:15:45;;;;;;;4.07;0.70;;;22.60;71.10;;;;;;2291996;55;21556;-69
2023/09/18 08:18:13;;;;;;;2.45;0.60;;;22.60;71.20;;;;;;2530041;54;21656;-70
2023/09/18 08:20:42;;;;;;;1.12;0.50;;;22.60;71.20;;;;;;2529176;53;21030;-67
2023/09/18 08:23:10;;;;;;;2.65;0.70;;;22.60;71.10;;;;;;2528133;53;20929;-67
2023/09/18 08:25:40;;;;;;;2.60;0.57;;;22.60;71.20;;;;;;2528678;53;21386;-69
2023/09/18 08:28:06;;;;;;;4.15;0.70;;;22.60;71.20;;;;;;2530361;53;20933;-69
2023/09/18 08:30:36;;;;;;;2.40;0.80;;;22.60;71.20;;;;;;2293930;55;21041;-69
2023/09/18 08:33:04;;;;;;;1.35;0.70;;;22.60;71.20;;;;;;2499040;54;20977;-69
2023/09/18 08:35:32;;;;;;;1.75;0.60;;;22.70;71.20;;;;;;2295301;55;20909;-70
2023/09/18 08:37:59;;;;;;;3.03;0.60;;;22.70;71.20;;;;;;2295799;55;21041;-68
2023/09/18 08:40:25;;;;;;;3.50;0.82;;;22.70;71.20;;;;;;2295951;55;21454;-69
2023/09/18 08:42:53;;;;;;;2.22;0.70;;;22.70;71.10;;;;;;2531229;54;20989;-71
2023/09/18 08:45:41;;;;;;;1.52;0.65;;;22.70;71.10;;;;;;2533245;54;20930;-70
2023/09/18 08:48:10;;;;;;;1.60;0.43;;;22.70;70.90;;;;;;2297589;55;20949;-71
2023/09/18 08:50:36;;;;;;;3.00;0.60;;;22.70;71.00;;;;;;2291984;55;20953;-69
2023/09/18 08:53:04;;;;;;;1.27;0.50;;;22.70;71.00;;;;;;2532566;54;20942;-69
2023/09/18 08:55:32;;;;;;;1.15;0.40;;;22.70;70.90;;;;;;2532954;54;20941;-70
2023/09/18 08:57:59;;;;;;;1.30;0.50;;;22.70;70.80;;;;;;2530055;54;20937;-68
2023/09/18 09:00:28;;;;;;;1.40;0.45;;;22.70;70.70;;;;;;2540778;53;21407;-70
2023/09/18 09:02:54;;;;;;;2.60;0.70;;;22.70;70.50;;;;;;2536065;53;20973;-70
2023/09/18 09:05:21;;;;;;;0.85;0.40;;;22.70;70.60;;;;;;2513465;53;21452;-70
2023/09/18 09:07:50;;;;;;;1.17;0.50;;;22.70;70.60;;;;;;2527636;54;20941;-67
2023/09/18 09:10:16;;;;;;;0.80;0.40;;;22.70;70.60;;;;;;2290907;55;20996;-70
2023/09/18 09:13:00;;;;;;;1.10;0.40;;;22.70;70.60;;;;;;2294360;54;21033;-70
2023/09/18 09:15:50;;;;;;;1.15;0.50;;;22.70;70.10;;;;;;2521120;54;20972;-71
2023/09/18 09:18:16;;;;;;;1.90;0.70;;;22.70;70.50;;;;;;2293338;54;20925;-69
2023/09/18 09:21:44;;;;;;;1.83;0.55;;;22.70;70.50;;;;;;2528857;54;21038;-70
2023/09/18 09:24:14;;;;;;;1.40;0.50;;;22.70;69.50;;;;;;2533938;54;20977;-71
2023/09/18 09:26:40;;;;;;;1.48;0.50;;;22.70;70.50;;;;;;2530900;54;20993;-69
2023/09/18 09:29:18;;;;;;;0.80;0.40;;;22.70;70.60;;;;;;2515317;53;21830;-70
2023/09/18 09:31:45;;;;;;;1.42;0.40;;;22.70;70.20;;;;;;2533870;53;20932;-69
2023/09/18 09:34:11;;;;;;;1.52;0.82;;;22.70;70.60;;;;;;2532694;53;20963;-69
2023/09/18 09:36:55;;;;;;;1.60;0.57;;;22.70;70.70;;;;;;2295679;54;21726;-69
2023/09/18 09:39:25;;;;;;;1.50;0.45;;;22.70;70.20;;;;;;2290894;54;21029;-69
2023/09/18 09:41:52;;;;;;;1.42;0.43;;;22.70;70.70;;;;;;2531749;53;21399;-70
2023/09/18 09:44:19;;;;;;;1.27;0.50;;;22.70;70.60;;;;;;2533186;53;21728;-68
2023/09/18 09:46:48;;;;;;;2.22;0.75;;;22.70;70.60;;;;;;2290415;54;20916;-70
2023/09/18 09:49:17;;;;;;;3.12;1.12;;;22.70;70.50;;;;;;2307570;54;21023;-68
2023/09/18 09:51:43;;;;;;;1.10;0.40;;;22.70;70.60;;;;;;2546961;53;20965;-68
2023/09/18 09:54:12;;;;;;;1.90;0.50;;;22.80;70.80;;;;;;2529885;53;21020;-69
2023/09/18 09:56:56;;;;;;;2.70;0.90;;;22.80;70.70;;;;;;2330652;54;20971;-70
2023/09/18 09:59:24;;;;;;;1.27;0.52;;;22.80;69.90;;;;;;2331099;55;21479;-69
2023/09/18 10:01:51;;;;;;;1.58;0.50;;;22.80;70.60;;;;;;2575221;53;20946;-71
2023/09/18 10:04:18;;;;;;;1.60;0.60;;;22.80;70.40;;;;;;2329416;55;20997;-70
2023/09/18 10:06:53;;;;;;;1.83;0.60;;;22.80;70.40;;;;;;2574251;53;20962;-69
2023/09/18 10:09:21;;;;;;;2.00;0.73;;;22.80;70.50;;;;;;2330649;55;21030;-69
2023/09/18 10:11:51;;;;;;;1.55;0.60;;;22.90;71.10;;;;;;2575524;53;20935;-70
2023/09/18 10:14:21;;;;;;;2.33;0.60;;;22.90;70.20;;;;;;2574931;53;20938;-70
2023/09/18 10:16:50;;;;;;;1.90;0.50;;;22.90;70.00;;;;;;2574331;53;20895;-68
2023/09/18 10:20:16;;;;;;;2.45;0.60;;;23.00;70.10;;;;;;2330513;55;20931;-69
2023/09/18 10:22:46;;;;;;;1.73;0.47;;;23.00;68.90;;;;;;2518871;54;20958;-69
2023/09/18 10:25:18;;;;;;;1.30;0.40;;;23.00;70.10;;;;;;2299122;54;21712;-70
2023/09/18 10:27:53;;;;;;;1.70;0.70;;;23.00;69.90;;;;;;2544753;54;20937;-70
2023/09/18 10:30:22;;;;;;;2.70;0.60;;;23.00;70.00;;;;;;2304957;55;20961;-69
2023/09/18 10:32:52;;;;;;;1.23;0.45;;;23.00;70.10;;;;;;2542638;53;20929;-69
2023/09/18 10:35:20;;;;;;;2.08;0.60;;;23.10;70.30;;;;;;2542863;54;20961;-69
2023/09/18 10:37:48;;;;;;;2.35;0.60;;;23.10;70.30;;;;;;2301988;55;21836;-70
2023/09/18 10:40:28;;;;;;;0.93;0.40;;;23.10;70.50;;;;;;2531109;54;21441;-71
2023/09/18 10:42:55;;;;;;;3.25;0.70;;;23.10;70.50;;;;;;2300741;54;20961;-70
2023/09/18 10:45:21;;;;;;;1.20;0.50;;;23.20;70.60;;;;;;2535988;54;21762;-70
2023/09/18 10:47:48;;;;;;;1.23;0.52;;;23.20;70.60;;;;;;2533690;54;20898;-69
2023/09/18 10:50:25;;;;;;;2.10;0.50;;;23.20;70.60;;;;;;2528823;54;20943;-70
2023/09/18 10:52:59;;;;;;;1.35;0.50;;;23.30;70.30;;;;;;2550710;53;21020;-71
2023/09/18 10:55:26;;;;;;;1.85;0.40;;;23.30;70.40;;;;;;2540207;53;21017;-70
2023/09/18 10:57:54;;;;;;;1.87;0.70;;;23.40;70.70;;;;;;2295732;54;20893;-70
2023/09/18 11:00:28;;;;;;;2.45;0.62;;;23.40;70.60;;;;;;2540274;53;20923;-70
2023/09/18 11:03:18;;;;;;;2.12;0.50;;;23.50;70.10;;;;;;2531708;53;20928;-71
2023/09/18 11:05:45;;;;;;;1.60;0.52;;;23.50;69.80;;;;;;2295317;54;20936;-70
2023/09/18 11:08:34;;;;;;;2.12;0.50;;;23.60;70.60;;;;;;2296572;55;20909;-70
2023/09/18 11:11:12;;;;;;;1.77;0.52;;;23.60;69.80;;;;;;2302743;54;21509;-70
2023/09/18 11:13:54;;;;;;;2.40;0.70;;;23.70;70.30;;;;;;2290297;54;20984;-71
2023/09/18 11:16:55;;;;;;;1.87;0.70;;;23.80;70.10;;;;;;2301431;55;21100;-70
2023/09/18 11:19:21;;;;;;;1.35;0.50;;;23.80;69.20;;;;;;2519778;54;21079;-70
2023/09/18 11:22:05;;;;;;;2.70;0.73;;;23.80;70.30;;;;;;2283221;54;22322;-70
2023/09/18 11:24:33;;;;;;;3.25;0.75;;;23.90;69.90;;;;;;2533570;53;20963;-71
2023/09/18 11:27:03;;;;;;;2.20;0.62;;;24.00;70.30;;;;;;2311297;55;20945;-70
2023/09/18 11:29:33;;;;;;;2.83;0.60;;;24.00;70.10;;;;;;2549737;53;21005;-70
2023/09/18 11:32:03;;;;;;;1.40;0.47;;;24.10;70.30;;;;;;2545657;53;20972;-70
2023/09/18 11:34:34;;;;;;;1.73;0.60;;;24.10;70.00;;;;;;2312570;55;20965;-69
2023/09/18 11:37:03;;;;;;;1.33;0.57;;;24.20;69.90;;;;;;2310899;55;21005;-70
2023/09/18 11:39:38;;;;;;;3.03;0.80;;;24.20;69.60;;;;;;2310436;55;21857;-69
2023/09/18 11:44:43;;;;;;;1.67;0.40;;;24.30;69.10;;;;;;2552962;53;20957;-68
2023/09/18 11:47:16;;;;;;;0.95;0.40;;;24.40;68.30;;;;;;2519716;53;21422;-70
2023/09/18 11:49:57;;;;;;;1.65;0.55;;;24.40;69.30;;;;;;2551665;53;21313;-69
2023/09/18 11:52:30;;;;;;;1.95;0.60;;;24.40;68.90;;;;;;2557680;53;21702;-69
2023/09/18 11:54:59;;;;;;;1.80;0.57;;;24.40;68.70;;;;;;2313796;55;21032;-68
2023/09/18 11:57:28;;;;;;;1.40;0.60;;;24.50;69.20;;;;;;2548917;53;20928;-69
2023/09/18 11:59:55;;;;;;;2.05;0.50;;;24.40;69.10;;;;;;2288714;55;21623;-68
2023/09/18 12:02:34;;;;;;;3.03;0.70;;;24.50;69.10;;;;;;2310839;55;21021;-69
2023/09/18 12:05:18;;;;;;;1.30;0.50;;;24.60;68.50;;;;;;2550109;53;20937;-69
2023/09/18 12:07:45;;;;;;;1.35;0.50;;;24.60;68.10;;;;;;2308098;55;21020;-69
2023/09/18 12:10:16;;;;;;;1.75;0.60;;;24.60;68.90;;;;;;2539174;53;22030;-71
2023/09/18 12:12:44;;;;;;;1.55;0.40;;;24.70;68.70;;;;;;2509200;53;21000;-70
2023/09/18 12:15:23;;;;;;;2.58;0.65;;;24.70;68.70;;;;;;2306947;55;20941;-69
2023/09/18 12:17:54;;;;;;;1.90;0.70;;;24.80;67.70;;;;;;2544152;53;20926;-71
2023/09/18 12:20:24;;;;;;;2.42;0.80;;;24.80;68.10;;;;;;2542046;53;21454;-69
2023/09/18 12:22:54;;;;;;;1.87;0.60;;;24.80;68.30;;;;;;2539710;53;21004;-70
2023/09/18 12:25:23;;;;;;;1.30;0.50;;;24.90;68.30;;;;;;2538545;53;21699;-70
2023/09/18 12:27:53;;;;;;;1.87;0.50;;;24.90;68.20;;;;;;2538028;53;22022;-69
2023/09/18 12:30:23;;;;;;;1.27;0.50;;;24.90;67.60;;;;;;2288005;55;21731;-69
2023/09/18 12:32:53;;;;;;;1.12;0.45;;;24.90;67.90;;;;;;2505949;53;21800;-69
2023/09/18 12:35:21;;;;;;;0.98;0.30;;;25.00;67.40;;;;;;2298290;55;21004;-71
2023/09/18 12:37:50;;;;;;;0.95;0.40;;;25.00;67.80;;;;;;2541734;53;21951;-69
2023/09/18 12:40:24;;;;;;;3.03;0.52;;;25.00;67.70;;;;;;2537533;53;20973;-70
2023/09/18 12:42:51;;;;;;;2.03;0.50;;;25.00;67.00;;;;;;2513124;53;20937;-70
2023/09/18 12:45:20;;;;;;;1.60;0.65;;;25.10;67.60;;;;;;2536168;53;21809;-70
2023/09/18 12:47:48;;;;;;;3.83;0.65;;;25.10;67.20;;;;;;2533704;53;20950;-69
2023/09/18 12:50:14;;;;;;;2.67;0.60;;;25.10;67.40;;;;;;2519419;53;20948;-70
2023/09/18 12:52:41;;;;;;;1.58;0.60;;;25.20;67.30;;;;;;2527454;53;21084;-71
2023/09/18 12:55:19;;;;;;;2.10;0.70;;;25.20;67.10;;;;;;2543807;53;22354;-69
2023/09/18 12:57:46;;;;;;;1.05;0.45;;;25.20;67.10;;;;;;2297745;55;21001;-70
2023/09/18 13:00:14;;;;;;;2.40;0.85;;;25.20;67.40;;;;;;2304056;55;21751;-70
2023/09/18 13:02:44;;;;;;;1.08;0.47;;;25.20;67.50;;;;;;2540505;53;21008;-70
2023/09/18 13:05:11;;;;;;;3.33;0.60;;;25.30;67.30;;;;;;2533984;53;20988;-71